Time;durP1;ratioP1;P1;durP2;ratioP2;P2;SDS_P1;SDS_P2;PMS_P1;PMS_P2;Temp;Humidity;BMP_temperature;BMP_pressure;BME280_temperature;BME280_humidity;BME280_pressure;Samples;Min_cycle;Max_cycle;Signal;HPM_P1;HPM_P2
2022/08/24 00:02:21;;;;;;;14.40;6.07;;;;;;;27.27;33.76;100538.31;5089247;28;20046;-63
2022/08/24 00:04:50;;;;;;;17.70;6.72;;;;;;;27.54;33.83;100554.88;5072608;28;20131;-63
2022/08/24 00:07:16;;;;;;;13.00;6.22;;;;;;;27.44;33.91;100554.72;5089042;28;20052;-63
2022/08/24 00:09:42;;;;;;;15.32;7.75;;;;;;;27.37;34.39;100559.50;5089066;28;20085;-64
2022/08/24 00:12:08;;;;;;;13.60;7.78;;;;;;;27.36;34.04;100560.56;5090396;28;20176;-63
2022/08/24 00:14:34;;;;;;;14.15;6.65;;;;;;;27.36;34.05;100557.81;5090298;28;20051;-63
2022/08/24 00:17:00;;;;;;;13.45;6.20;;;;;;;27.38;34.06;100569.34;5089102;28;20055;-63
2022/08/24 00:19:26;;;;;;;13.68;6.35;;;;;;;27.32;33.78;100562.13;5072266;28;20039;-63
2022/08/24 00:21:52;;;;;;;19.13;7.28;;;;;;;27.29;34.25;100568.88;5090316;28;20090;-64
2022/08/24 00:24:18;;;;;;;15.20;4.93;;;;;;;27.31;33.46;100560.44;5090285;28;20047;-63
2022/08/24 00:26:45;;;;;;;13.65;5.88;;;;;;;27.30;33.42;100562.38;5088864;28;20105;-63
2022/08/24 00:29:12;;;;;;;10.32;5.80;;;;;;;27.38;33.74;100564.72;5090340;28;20051;-63
2022/08/24 00:31:38;;;;;;;17.98;6.10;;;;;;;27.34;33.54;100570.91;5072306;28;20055;-63
2022/08/24 00:34:04;;;;;;;12.38;6.40;;;;;;;27.16;33.51;100550.06;5088735;28;20048;-64
2022/08/24 00:36:30;;;;;;;13.68;5.95;;;;;;;27.30;33.52;100575.19;5072268;28;20493;-63
2022/08/24 00:38:55;;;;;;;15.93;7.60;;;;;;;27.27;33.79;100573.78;5092789;28;20075;-64
2022/08/24 00:41:21;;;;;;;20.33;5.93;;;;;;;27.23;33.29;100574.47;5094294;28;20185;-64
2022/08/24 00:43:57;;;;;;;17.10;6.50;;;;;;;27.39;33.33;100574.53;5092620;28;20055;-63
2022/08/24 00:46:28;;;;;;;15.85;6.72;;;;;;;27.38;33.48;100574.78;5075647;28;20075;-66
2022/08/24 00:49:01;;;;;;;14.57;6.75;;;;;;;27.42;33.80;100568.59;5075368;28;20187;-62
2022/08/24 00:51:33;;;;;;;22.73;7.18;;;;;;;27.45;34.03;100572.72;5092032;28;20097;-63
2022/08/24 00:54:07;;;;;;;23.42;8.32;;;;;;;27.45;34.18;100575.44;5092177;28;20386;-63
2022/08/24 00:56:48;;;;;;;17.27;9.00;;;;;;;27.37;34.22;100565.75;5093545;28;20131;-64
2022/08/24 00:59:18;;;;;;;18.67;8.65;;;;;;;27.37;34.02;100570.41;5092041;28;20032;-64
2022/08/24 01:01:44;;;;;;;;;;;;;;;27.51;33.86;100571.75;5093580;28;20047;-64
2022/08/24 01:04:27;;;;;;;17.00;8.52;;;;;;;27.51;33.70;100579.94;5091760;28;20351;-64
2022/08/24 01:06:53;;;;;;;21.55;9.02;;;;;;;27.32;33.90;100573.03;5093369;28;20066;-64
2022/08/24 01:09:18;;;;;;;18.42;8.38;;;;;;;27.23;33.50;100564.38;5093146;28;20048;-63
2022/08/24 01:11:44;;;;;;;21.25;9.25;;;;;;;27.30;33.92;100569.72;5091638;28;20409;-63
2022/08/24 01:14:10;;;;;;;22.10;9.30;;;;;;;27.29;34.03;100581.72;5091559;28;20036;-64
2022/08/24 01:19:22;;;;;;;19.05;7.55;;;;;;;27.38;34.02;100578.34;5077390;28;20489;-64
2022/08/24 01:22:01;;;;;;;25.98;9.40;;;;;;;27.34;34.99;100574.44;5091360;28;20126;-64
2022/08/24 01:24:27;;;;;;;28.92;10.05;;;;;;;27.16;35.21;100573.78;5041117;28;20421;-63
2022/08/24 01:26:52;;;;;;;16.85;9.07;;;;;;;27.13;34.85;100575.09;5091651;28;20048;-64
2022/08/24 01:29:21;;;;;;;40.75;11.40;;;;;;;27.26;35.16;100582.22;5074281;28;20130;-64
2022/08/24 01:31:47;;;;;;;28.70;9.93;;;;;;;27.01;35.33;100571.59;5091754;28;20048;-63
2022/08/24 01:34:13;;;;;;;24.35;7.95;;;;;;;27.03;34.80;100580.34;5074277;28;20066;-63
2022/08/24 01:36:56;;;;;;;18.90;8.82;;;;;;;27.19;34.88;100574.13;5092472;28;20043;-63
2022/08/24 01:39:29;;;;;;;20.88;8.35;;;;;;;27.02;34.96;100556.03;5092829;28;20044;-63
2022/08/24 01:41:56;;;;;;;16.88;7.50;;;;;;;26.99;34.97;100572.88;5074762;28;20253;-65
2022/08/24 01:44:23;;;;;;;19.17;7.57;;;;;;;27.04;34.88;100573.00;5091366;28;20456;-63
2022/08/24 01:46:54;;;;;;;21.58;7.20;;;;;;;27.03;35.00;100579.53;5091247;28;20048;-63
2022/08/24 01:49:23;;;;;;;16.73;6.95;;;;;;;27.01;34.49;100581.66;5074812;28;20047;-64
2022/08/24 01:51:52;;;;;;;20.73;8.25;;;;;;;26.76;34.98;100567.50;5074986;28;20051;-63
2022/08/24 01:54:26;;;;;;;17.65;7.85;;;;;;;26.82;35.05;100582.88;5057328;28;20040;-63
2022/08/24 01:56:52;;;;;;;26.35;9.68;;;;;;;27.19;34.43;100574.13;5075683;28;20683;-65
2022/08/24 01:59:19;;;;;;;20.05;9.32;;;;;;;27.70;34.00;100576.75;5090541;28;20047;-64
2022/08/24 02:01:47;;;;;;;20.80;7.55;;;;;;;28.37;32.22;100587.69;5090861;28;20059;-63
2022/08/24 02:04:13;;;;;;;31.95;6.00;;;;;;;28.87;29.75;100583.78;5090651;28;20093;-65
2022/08/24 02:06:39;;;;;;;22.35;5.80;;;;;;;29.49;28.85;100592.47;5090208;28;20489;-65
2022/08/24 02:09:08;;;;;;;31.70;8.23;;;;;;;29.90;28.92;100591.78;5090457;28;20093;-65
2022/08/24 02:11:35;;;;;;;23.15;6.47;;;;;;;30.13;28.70;100596.06;5090341;28;20043;-65
2022/08/24 02:14:02;;;;;;;37.75;8.50;;;;;;;30.08;28.38;100604.22;5073548;28;20050;-65
2022/08/24 02:16:27;;;;;;;31.38;8.77;;;;;;;30.04;28.55;100589.41;5090417;28;20480;-65
2022/08/24 02:18:53;;;;;;;44.20;8.63;;;;;;;30.08;28.48;100591.38;5073419;28;20071;-64
2022/08/24 02:21:19;;;;;;;32.15;8.05;;;;;;;30.09;28.54;100595.75;5091439;28;20047;-66
2022/08/24 02:23:46;;;;;;;30.48;7.57;;;;;;;30.09;28.52;100594.94;5090070;28;20399;-65
2022/08/24 02:26:12;;;;;;;34.60;8.68;;;;;;;30.03;28.56;100582.28;5073169;28;20043;-65
2022/08/24 02:28:38;;;;;;;31.80;8.45;;;;;;;30.23;28.57;100596.19;5090119;28;20067;-65
2022/08/24 02:31:05;;;;;;;41.50;8.98;;;;;;;30.28;28.67;100594.28;5090278;28;20116;-65
2022/08/24 02:33:33;;;;;;;40.58;9.52;;;;;;;30.27;28.60;100591.81;5073040;28;20055;-65
2022/08/24 02:35:59;;;;;;;55.35;11.20;;;;;;;30.12;28.99;100587.03;5089989;28;20042;-65
2022/08/24 02:38:24;;;;;;;68.05;11.20;;;;;;;30.09;29.15;100598.50;5090239;28;20048;-63
2022/08/24 02:40:52;;;;;;;68.22;12.85;;;;;;;30.04;29.09;100600.38;5090083;28;20489;-64
2022/08/24 02:43:17;;;;;;;48.00;10.55;;;;;;;29.93;29.09;100591.25;5090157;28;20043;-64
2022/08/24 02:45:45;;;;;;;47.72;11.18;;;;;;;30.04;29.37;100592.16;5089745;28;20043;-67
2022/08/24 02:48:13;;;;;;;45.22;10.75;;;;;;;30.06;29.41;100592.72;5073140;28;20170;-65
2022/08/24 02:50:41;;;;;;;47.38;9.30;;;;;;;30.04;29.20;100595.72;5089604;28;20119;-64
2022/08/24 02:53:08;;;;;;;36.60;8.38;;;;;;;29.90;28.61;100588.19;5072842;28;20116;-65
2022/08/24 02:55:34;;;;;;;44.33;9.45;;;;;;;30.00;28.51;100602.00;5089448;28;20134;-65
2022/08/24 02:58:00;;;;;;;34.92;8.68;;;;;;;30.01;28.68;100607.22;5089295;28;20054;-65
2022/08/24 03:00:26;;;;;;;35.58;8.13;;;;;;;30.03;28.84;100604.22;5072501;28;20517;-65
2022/08/24 03:02:54;;;;;;;26.02;7.47;;;;;;;30.00;28.86;100611.03;5090377;28;20086;-65
2022/08/24 03:05:21;;;;;;;24.95;7.35;;;;;;;30.09;28.76;100614.13;5088961;28;20059;-64
2022/08/24 03:07:47;;;;;;;25.13;7.40;;;;;;;29.97;28.76;100606.06;5089215;28;20060;-65
2022/08/24 03:10:13;;;;;;;29.65;8.82;;;;;;;30.05;28.76;100616.56;5072833;28;20044;-64
2022/08/24 03:12:39;;;;;;;25.75;8.48;;;;;;;29.99;28.79;100595.69;5089673;28;20126;-65
2022/08/24 03:15:08;;;;;;;23.73;7.07;;;;;;;30.23;28.54;100620.84;5089131;28;20048;-65
2022/08/24 03:17:34;;;;;;;24.73;8.30;;;;;;;30.18;28.62;100616.13;5089358;28;20105;-65
2022/08/24 03:20:01;;;;;;;34.47;7.90;;;;;;;30.30;28.57;100615.94;5089436;28;20067;-65
2022/08/24 03:22:29;;;;;;;32.87;7.80;;;;;;;30.28;28.12;100618.13;5073377;28;20060;-64
2022/08/24 03:24:55;;;;;;;32.70;7.32;;;;;;;30.23;28.30;100618.91;5090036;28;20274;-65
2022/08/24 03:27:21;;;;;;;49.30;9.02;;;;;;;30.21;28.46;100618.38;5088653;28;20043;-67
2022/08/24 03:29:47;;;;;;;35.67;8.30;;;;;;;30.12;28.36;100610.84;5072167;28;20051;-65
2022/08/24 03:32:14;;;;;;;32.85;8.35;;;;;;;30.21;28.11;100626.59;5072136;28;20429;-65
2022/08/24 03:34:39;;;;;;;31.70;6.85;;;;;;;30.24;28.03;100620.59;5088702;28;20055;-65
2022/08/24 03:37:06;;;;;;;36.58;7.82;;;;;;;30.26;28.17;100625.81;5088902;28;20134;-66
2022/08/24 03:39:32;;;;;;;20.13;7.10;;;;;;;30.24;28.48;100628.81;5055597;28;20057;-67
2022/08/24 03:41:58;;;;;;;22.45;7.95;;;;;;;30.11;28.62;100617.41;5072337;28;20155;-65
2022/08/24 03:44:25;;;;;;;26.83;7.75;;;;;;;30.15;28.39;100621.28;5088678;28;20097;-65
2022/08/24 03:46:52;;;;;;;32.08;7.40;;;;;;;30.24;28.77;100633.44;5072118;28;20043;-65
2022/08/24 03:49:20;;;;;;;28.02;7.10;;;;;;;30.32;28.20;100631.03;5088496;28;20043;-64
2022/08/24 03:51:46;;;;;;;14.13;5.60;;;;;;;30.27;27.86;100621.97;5088424;28;20047;-64
2022/08/24 03:54:12;;;;;;;20.83;6.60;;;;;;;30.53;27.77;100632.03;5071996;28;20036;-65
2022/08/24 03:56:39;;;;;;;19.85;6.32;;;;;;;30.55;27.78;100638.06;5090089;28;20048;-65
2022/08/24 03:59:06;;;;;;;24.10;7.43;;;;;;;30.63;28.05;100630.16;5088785;28;20047;-65
2022/08/24 04:01:37;;;;;;;30.20;7.63;;;;;;;30.69;27.87;100637.31;5088599;28;20055;-64
2022/08/24 04:04:03;;;;;;;27.90;6.95;;;;;;;30.75;27.87;100633.53;5071893;28;20062;-65
2022/08/24 04:06:35;;;;;;;23.58;7.30;;;;;;;30.90;27.70;100628.16;5088399;28;20164;-65
2022/08/24 04:09:01;;;;;;;26.33;8.30;;;;;;;30.78;27.67;100638.50;5088720;28;20139;-64
2022/08/24 04:11:30;;;;;;;24.95;7.18;;;;;;;30.75;27.76;100646.47;5072402;28;20214;-64
2022/08/24 04:13:56;;;;;;;28.17;7.70;;;;;;;30.79;27.87;100645.66;5058918;28;20043;-65
2022/08/24 04:16:24;;;;;;;28.45;8.23;;;;;;;30.67;27.93;100624.97;5092380;28;20517;-65
2022/08/24 04:18:59;;;;;;;25.52;8.70;;;;;;;30.68;28.09;100648.56;5092550;28;20048;-65
2022/08/24 04:21:28;;;;;;;23.73;7.88;;;;;;;30.63;28.36;100643.06;5096994;28;20051;-65
2022/08/24 04:23:54;;;;;;;24.95;9.15;;;;;;;30.56;28.43;100658.91;5075690;28;20051;-65
2022/08/24 04:26:24;;;;;;;23.30;8.63;;;;;;;30.66;28.34;100653.50;5091977;28;20073;-65
2022/08/24 04:28:50;;;;;;;25.20;8.20;;;;;;;30.52;28.37;100657.81;5075131;28;20052;-64
2022/08/24 04:31:18;;;;;;;16.00;8.18;;;;;;;30.11;28.75;100634.69;5074881;28;20040;-64
2022/08/24 04:33:46;;;;;;;23.70;7.95;;;;;;;29.86;29.23;100652.81;5091890;28;20063;-64
2022/08/24 04:36:12;;;;;;;29.75;8.57;;;;;;;29.69;29.88;100658.41;5091845;28;20047;-64
2022/08/24 04:38:40;;;;;;;25.00;8.32;;;;;;;29.63;30.05;100647.63;5091966;28;20051;-64
2022/08/24 04:41:32;;;;;;;20.20;7.50;;;;;;;29.66;30.24;100647.16;5092461;28;20849;-64
2022/08/24 04:43:59;;;;;;;24.73;7.35;;;;;;;29.75;30.21;100657.38;5092106;28;20036;-65
2022/08/24 04:46:26;;;;;;;19.17;8.15;;;;;;;29.90;30.15;100648.47;5074880;28;20035;-64
2022/08/24 04:48:53;;;;;;;25.23;7.50;;;;;;;30.18;29.39;100651.75;5091758;28;20494;-65
2022/08/24 04:51:19;;;;;;;18.50;7.45;;;;;;;30.32;29.19;100652.16;5075164;28;20121;-65
2022/08/24 04:53:46;;;;;;;31.08;7.63;;;;;;;30.63;28.71;100646.63;5092208;28;20040;-65
2022/08/24 04:56:14;;;;;;;28.95;7.80;;;;;;;30.79;28.24;100642.91;5091468;28;20132;-65
2022/08/24 04:58:41;;;;;;;16.17;7.35;;;;;;;30.85;28.17;100646.50;5070650;28;20047;-65
2022/08/24 05:01:14;;;;;;;20.38;8.32;;;;;;;31.05;27.90;100630.13;5090308;28;20044;-65
2022/08/24 05:03:43;;;;;;;19.73;7.68;;;;;;;31.21;27.81;100639.25;5089909;28;20040;-64
2022/08/24 05:06:10;;;;;;;21.65;7.18;;;;;;;31.13;27.89;100638.69;5090065;28;20060;-64
2022/08/24 05:08:36;;;;;;;23.58;7.38;;;;;;;31.19;28.11;100653.25;5090180;28;20083;-65
2022/08/24 05:11:06;;;;;;;21.42;6.55;;;;;;;31.14;26.95;100656.81;5090331;28;20528;-64
2022/08/24 05:13:34;;;;;;;18.65;7.38;;;;;;;31.26;27.61;100642.03;5089654;28;20048;-65
2022/08/24 05:16:01;;;;;;;16.75;7.07;;;;;;;31.38;27.33;100651.72;5090226;28;20481;-64
2022/08/24 05:18:28;;;;;;;18.73;6.82;;;;;;;31.59;26.67;100650.69;5056725;28;20040;-64
2022/08/24 05:20:55;;;;;;;15.00;5.88;;;;;;;31.82;26.27;100647.41;5073073;28;20044;-64
2022/08/24 05:23:21;;;;;;;21.15;6.63;;;;;;;31.88;26.76;100656.53;5072444;28;20040;-64
2022/08/24 05:25:47;;;;;;;18.58;6.05;;;;;;;31.89;26.32;100658.19;5072990;28;20131;-64
2022/08/24 05:28:13;;;;;;;21.55;6.28;;;;;;;31.94;26.51;100652.69;5073484;28;20127;-64
2022/08/24 05:30:39;;;;;;;22.42;6.85;;;;;;;32.01;26.50;100650.50;5089450;28;20131;-66
2022/08/24 05:33:04;;;;;;;14.93;6.25;;;;;;;32.19;26.34;100650.78;5073160;28;20058;-64
2022/08/24 05:35:30;;;;;;;16.45;5.78;;;;;;;32.17;25.52;100654.88;5072924;28;20497;-64
2022/08/24 05:37:56;;;;;;;16.35;5.43;;;;;;;32.18;25.53;100640.06;5056589;28;20040;-64
2022/08/24 05:40:26;;;;;;;16.80;5.35;;;;;;;32.26;25.50;100651.31;5089910;28;20125;-65
2022/08/24 05:42:54;;;;;;;14.90;5.82;;;;;;;32.27;25.79;100654.91;5072988;28;20047;-64
2022/08/24 05:45:22;;;;;;;15.23;5.78;;;;;;;32.35;26.01;100652.44;5073777;28;20058;-64
2022/08/24 05:47:53;;;;;;;19.00;6.03;;;;;;;32.46;25.68;100648.59;5073110;28;20056;-64
2022/08/24 05:50:38;;;;;;;19.60;6.82;;;;;;;32.50;25.25;100657.94;5091416;28;20135;-65
2022/08/24 05:53:05;;;;;;;22.08;6.63;;;;;;;32.58;24.74;100659.31;5089538;28;20040;-64
2022/08/24 05:55:30;;;;;;;18.35;5.22;;;;;;;32.63;24.46;100665.63;5089649;28;20109;-64
2022/08/24 05:57:56;;;;;;;14.50;5.63;;;;;;;32.72;24.28;100654.88;5090770;28;20423;-65
2022/08/24 06:00:24;;;;;;;13.38;6.00;;;;;;;32.83;24.21;100653.72;5089719;28;20040;-65
2022/08/24 06:02:51;;;;;;;29.23;7.03;;;;;;;32.84;24.14;100660.91;5088944;28;20044;-65
2022/08/24 06:05:18;;;;;;;25.80;6.10;;;;;;;32.93;24.22;100653.75;5088783;28;20137;-65
2022/08/24 06:07:47;;;;;;;23.08;6.15;;;;;;;33.15;24.05;100661.66;5088844;28;20531;-65
2022/08/24 06:10:14;;;;;;;;;;;;;;;33.32;24.19;100657.44;5089219;28;20040;-64
2022/08/24 06:12:41;;;;;;;25.05;6.05;;;;;;;33.14;24.09;100662.75;5054443;28;20378;-64
2022/08/24 06:15:07;;;;;;;17.80;6.60;;;;;;;33.19;24.32;100652.53;5089406;28;20497;-64
2022/08/24 06:17:33;;;;;;;19.92;5.68;;;;;;;33.23;24.29;100656.38;5072213;28;20044;-66
2022/08/24 06:19:59;;;;;;;22.42;6.00;;;;;;;32.96;24.29;100646.84;5072508;28;20039;-64
2022/08/24 06:22:27;;;;;;;22.05;5.95;;;;;;;32.83;24.55;100655.69;5089767;28;20036;-64
2022/08/24 06:27:53;;;;;;;20.88;5.57;;;;;;;33.10;24.04;100648.72;5077025;28;20063;-64
2022/08/24 06:30:22;;;;;;;26.00;5.88;;;;;;;33.35;24.78;100658.81;5090422;28;20048;-64
2022/08/24 06:33:41;;;;;;;27.17;6.00;;;;;;;33.59;24.28;100662.56;5062202;28;20048;-65
2022/08/24 06:36:07;;;;;;;20.58;5.90;;;;;;;33.71;24.17;100661.13;5088551;28;20413;-66
2022/08/24 06:38:33;;;;;;;19.13;5.25;;;;;;;33.78;23.72;100658.84;5088771;28;20052;-64
2022/08/24 06:41:01;;;;;;;20.10;5.53;;;;;;;33.92;23.86;100665.41;5072299;28;20434;-64
2022/08/24 06:43:27;;;;;;;12.13;5.40;;;;;;;33.87;23.28;100664.59;5055625;28;20036;-64
2022/08/24 06:45:54;;;;;;;13.98;4.97;;;;;;;34.02;23.09;100661.75;5086667;28;20075;-64
2022/08/24 06:48:26;;;;;;;16.50;5.90;;;;;;;34.04;23.74;100657.59;5069749;28;20531;-65
2022/08/24 06:50:52;;;;;;;23.17;5.90;;;;;;;34.24;23.73;100656.63;5085689;28;20047;-65
2022/08/24 06:53:19;;;;;;;25.35;4.95;;;;;;;34.36;23.23;100646.03;5085917;28;20237;-65
2022/08/24 06:55:52;;;;;;;19.92;4.63;;;;;;;34.62;22.32;100664.00;5066439;28;20048;-65
2022/08/24 06:58:18;;;;;;;11.35;4.22;;;;;;;34.56;22.25;100661.59;5043247;28;20044;-64
2022/08/24 07:00:45;;;;;;;17.45;5.22;;;;;;;34.53;22.66;100657.47;5034962;28;20098;-64
2022/08/24 07:03:12;;;;;;;18.38;4.82;;;;;;;34.66;22.23;100645.75;5068067;28;20048;-65
2022/08/24 07:05:55;;;;;;;14.32;4.30;;;;;;;35.05;22.25;100657.50;5052958;28;20155;-64
2022/08/24 07:08:36;;;;;;;15.75;4.30;;;;;;;35.04;21.62;100655.03;5085736;28;20514;-64
2022/08/24 07:11:02;;;;;;;22.85;4.97;;;;;;;35.22;21.59;100652.31;5035267;28;20052;-64
2022/08/24 07:13:30;;;;;;;12.05;4.18;;;;;;;35.36;21.27;100650.50;5050502;28;20040;-64
2022/08/24 07:15:57;;;;;;;17.95;4.72;;;;;;;35.65;20.94;100651.19;5068002;28;20156;-64
2022/08/24 07:18:23;;;;;;;14.70;3.40;;;;;;;35.54;19.81;100646.91;5084323;28;20052;-64
2022/08/24 07:20:49;;;;;;;11.30;3.55;;;;;;;35.80;20.24;100641.03;5067954;28;20045;-64
2022/08/24 07:23:18;;;;;;;15.88;3.65;;;;;;;36.10;20.02;100646.09;5067700;28;20044;-64
2022/08/24 07:25:45;;;;;;;12.98;3.13;;;;;;;36.36;19.46;100644.56;5067609;28;20039;-65
2022/08/24 07:28:34;;;;;;;13.98;3.72;;;;;;;36.92;18.06;100640.47;5067955;28;20417;-65
2022/08/24 07:31:33;;;;;;;13.07;3.33;;;;;;;37.47;17.65;100643.22;5081745;28;20100;-65
2022/08/24 07:34:07;;;;;;;13.10;3.15;;;;;;;37.48;16.81;100642.06;5087513;28;20131;-65
2022/08/24 07:36:35;;;;;;;13.10;2.65;;;;;;;38.11;16.81;100640.88;5071436;28;20062;-64
2022/08/24 07:39:01;;;;;;;11.75;2.53;;;;;;;39.22;15.59;100637.88;5089214;28;20066;-64
2022/08/24 07:41:28;;;;;;;17.13;2.63;;;;;;;41.12;13.47;100642.59;5087742;28;20127;-64
2022/08/24 07:43:55;;;;;;;9.93;2.25;;;;;;;43.56;11.09;100645.56;5088632;28;20071;-65
2022/08/24 07:46:21;;;;;;;7.78;2.30;;;;;;;46.25;9.44;100641.69;5088028;28;20126;-65
2022/08/24 07:48:49;;;;;;;13.35;2.42;;;;;;;48.97;7.50;100642.34;5055270;28;20043;-65
2022/08/24 07:51:18;;;;;;;10.25;2.47;;;;;;;51.14;5.71;100642.34;5071212;28;20126;-65
2022/08/24 07:53:46;;;;;;;;;;;;;;;52.09;5.01;100636.38;5071168;28;20044;-66
2022/08/24 07:56:12;;;;;;;14.07;2.57;;;;;;;53.49;4.98;100627.94;5071271;28;19920;-67
2022/08/24 07:58:42;;;;;;;13.52;2.50;;;;;;;55.06;3.76;100624.75;5087940;28;20055;-66
2022/08/24 08:01:08;;;;;;;11.13;2.08;;;;;;;56.52;3.64;100624.91;5088412;28;20060;-67
2022/08/24 08:03:34;;;;;;;13.63;2.65;;;;;;;57.10;2.56;100634.44;5054089;28;20463;-66
2022/08/24 08:06:05;;;;;;;9.75;1.85;;;;;;;58.51;1.75;100623.22;5071350;28;20048;-66
2022/08/24 08:08:34;;;;;;;8.73;1.88;;;;;;;58.64;1.55;100621.09;5054204;28;20055;-67
2022/08/24 08:11:01;;;;;;;16.13;2.13;;;;;;;58.20;1.67;100618.50;5087517;28;20044;-65
2022/08/24 08:13:28;;;;;;;8.60;1.80;;;;;;;57.28;1.79;100632.72;5069461;28;20147;-66
2022/08/24 08:15:55;;;;;;;9.93;2.03;;;;;;;56.22;2.19;100606.03;5053867;28;20104;-66
2022/08/24 08:18:24;;;;;;;9.95;1.92;;;;;;;55.46;2.79;100603.66;5071051;28;20048;-65
2022/08/24 08:20:52;;;;;;;11.57;1.90;;;;;;;57.26;2.19;100612.34;5054274;28;20040;-66
2022/08/24 08:26:18;;;;;;;13.50;2.30;;;;;;;58.71;1.69;100602.91;5074433;28;20058;-67
2022/08/24 08:29:09;;;;;;;17.60;2.33;;;;;;;59.61;0.81;100615.16;5087657;28;20059;-67
2022/08/24 08:31:37;;;;;;;8.60;1.98;;;;;;;59.42;1.28;100606.88;5086041;28;20047;-66
2022/08/24 08:34:03;;;;;;;14.80;1.83;;;;;;;59.76;0.77;100604.72;5069604;28;20959;-66
2022/08/24 08:36:29;;;;;;;6.80;1.80;;;;;;;60.84;0.76;100604.31;5087643;28;20039;-67
2022/08/24 08:38:55;;;;;;;6.95;1.70;;;;;;;59.72;0.79;100597.50;5071207;28;20048;-66
2022/08/24 08:41:51;;;;;;;10.90;1.88;;;;;;;60.55;0.17;100614.66;5088041;28;20109;-66
2022/08/24 08:44:32;;;;;;;7.03;1.50;;;;;;;59.46;1.18;100596.06;5071350;28;20473;-65
2022/08/24 08:47:07;;;;;;;10.02;1.95;;;;;;;60.05;0.39;100587.19;5087258;28;20066;-67
2022/08/24 08:53:01;;;;;;;16.17;1.60;;;;;;;61.99;0.00;100593.63;5078496;28;20044;-68
2022/08/24 08:55:33;;;;;;;8.00;1.55;;;;;;;62.10;0.00;100591.81;5070063;28;20101;-66
2022/08/24 08:58:12;;;;;;;6.22;1.70;;;;;;;58.38;0.71;100567.22;5071144;28;20105;-65
2022/08/24 09:01:05;;;;;;;10.27;1.50;;;;;;;57.50;1.27;100575.72;5091925;28;20043;-66
2022/08/24 09:03:32;;;;;;;10.63;1.85;;;;;;;58.12;1.11;100577.88;5074216;28;20139;-66
2022/08/24 09:06:43;;;;;;;9.15;1.35;;;;;;;60.15;0.00;100580.22;5090768;28;20108;-66
2022/08/24 09:22:14;;;;;;;6.95;1.10;;;;;;;54.30;1.47;100551.66;5826795;23;20153;-72
2022/08/24 09:24:56;;;;;;;6.05;1.25;;;;;;;54.10;1.30;100547.09;4840683;29;20089;-72
2022/08/24 09:27:51;;;;;;;9.20;1.40;;;;;;;55.53;1.00;100546.47;4854437;29;20049;-73
2022/08/24 09:30:22;;;;;;;8.85;1.40;;;;;;;54.80;1.60;100552.41;4839774;29;20087;-72
2022/08/24 09:32:57;;;;;;;5.47;1.30;;;;;;;55.49;1.17;100548.63;4839632;29;20128;-72
2022/08/24 09:35:34;;;;;;;12.40;1.40;;;;;;;55.22;1.42;100538.59;4854792;29;20149;-71
2022/08/24 09:38:32;;;;;;;6.88;1.40;;;;;;;55.49;1.23;100542.94;4839463;29;20083;-71
2022/08/24 09:41:29;;;;;;;11.95;1.45;;;;;;;53.78;2.05;100536.16;4823962;29;20049;-71
2022/08/24 09:44:07;;;;;;;6.80;1.70;;;;;;;53.12;2.43;100547.16;4824388;29;20046;-71
2022/08/24 09:46:41;;;;;;;7.15;1.63;;;;;;;52.68;2.55;100526.53;4840637;29;20528;-72
2022/08/24 09:49:22;;;;;;;6.30;1.50;;;;;;;53.52;2.25;100524.78;4855027;29;20393;-73
2022/08/24 09:52:03;;;;;;;6.40;1.50;;;;;;;53.61;1.81;100530.75;4854744;29;20057;-72
2022/08/24 09:54:29;;;;;;;6.30;1.20;;;;;;;53.42;1.74;100521.63;4854185;29;20052;-71
2022/08/24 09:57:15;;;;;;;8.70;1.45;;;;;;;53.52;1.59;100513.41;4854642;29;20519;-71
2022/08/24 10:00:08;;;;;;;6.97;1.30;;;;;;;54.92;1.50;100521.72;4839403;29;20194;-72
2022/08/24 10:02:52;;;;;;;7.03;1.13;;;;;;;54.81;0.94;100545.47;4854143;29;20090;-72
2022/08/24 10:05:43;;;;;;;5.45;1.27;;;;;;;53.72;1.36;100529.34;4839120;29;20051;-71
2022/08/24 10:08:17;;;;;;;8.10;1.40;;;;;;;52.51;2.14;100539.63;4839275;29;20046;-71
2022/08/24 10:10:58;;;;;;;4.53;1.33;;;;;;;52.15;2.44;100518.44;4853614;29;20046;-71
2022/08/24 10:13:42;;;;;;;13.07;1.58;;;;;;;52.20;2.15;100526.50;4838663;29;20046;-71
2022/08/24 10:16:41;;;;;;;12.68;1.52;;;;;;;53.88;1.69;100525.88;4854307;29;20054;-71
2022/08/24 10:19:28;;;;;;;10.55;1.50;;;;;;;55.99;1.18;100537.69;4823802;29;20098;-72
2022/08/24 10:22:13;;;;;;;11.10;1.30;;;;;;;54.96;1.42;100539.53;4838900;29;20567;-71
2022/08/24 10:25:09;;;;;;;15.32;1.30;;;;;;;53.77;1.47;100537.41;4811436;29;20555;-70
2022/08/24 10:27:42;;;;;;;4.07;1.30;;;;;;;53.63;1.80;100514.88;4821692;29;20058;-69
2022/08/24 10:30:13;;;;;;;8.55;1.38;;;;;;;53.06;1.96;100526.13;4820366;29;20047;-69
2022/08/24 10:33:17;;;;;;;5.03;1.05;;;;;;;52.75;2.01;100506.56;4821714;29;20044;-70
2022/08/24 10:35:58;;;;;;;3.60;1.30;;;;;;;53.14;1.83;100516.31;4835420;29;20058;-69
2022/08/24 10:41:12;;;;;;;9.10;1.13;;;;;;;55.58;1.18;100510.97;4835773;29;20054;-69
2022/08/24 10:43:59;;;;;;;8.55;1.20;;;;;;;56.69;0.61;100503.72;4835271;29;20412;-70
2022/08/24 10:46:48;;;;;;;13.35;1.55;;;;;;;57.13;0.42;100511.44;4835750;29;20126;-69
2022/08/24 10:49:36;;;;;;;7.15;1.10;;;;;;;56.77;0.90;100508.00;4835598;29;20057;-70
2022/08/24 10:52:29;;;;;;;5.65;1.35;;;;;;;58.53;0.33;100508.19;4835317;29;20050;-69
2022/08/24 10:54:55;;;;;;;9.43;1.25;;;;;;;57.41;0.26;100499.19;4805872;29;20152;-70
2022/08/24 10:57:36;;;;;;;10.52;1.30;;;;;;;57.59;0.70;100498.66;4804563;29;20196;-69
2022/08/24 11:00:14;;;;;;;5.90;1.00;;;;;;;57.77;0.45;100498.88;4819529;29;20156;-69
2022/08/24 11:02:42;;;;;;;7.05;1.20;;;;;;;56.95;0.84;100494.03;4820149;29;20046;-69
2022/08/24 11:05:09;;;;;;;;;;;;;;;56.24;1.11;100502.84;4835786;29;20176;-69
2022/08/24 11:07:54;;;;;;;4.78;0.90;;;;;;;56.41;0.97;100486.56;4819814;29;19925;-69
2022/08/24 11:10:29;;;;;;;7.70;1.10;;;;;;;56.36;0.55;100498.50;4835112;29;20054;-70
2022/08/24 11:12:55;;;;;;;5.25;1.05;;;;;;;54.68;1.22;100481.06;4834468;29;20479;-70
2022/08/24 11:15:25;;;;;;;11.32;1.10;;;;;;;54.82;1.10;100478.75;4835380;29;20150;-70
2022/08/24 11:17:56;;;;;;;5.18;1.10;;;;;;;54.95;1.13;100500.91;4834985;29;20065;-70
2022/08/24 11:20:37;;;;;;;4.65;1.10;;;;;;;53.84;1.58;100485.34;4834512;29;20046;-70
2022/08/24 11:23:06;;;;;;;7.88;1.00;;;;;;;51.47;2.91;100485.25;4804314;29;20066;-69
2022/08/24 11:25:34;;;;;;;3.58;1.02;;;;;;;50.03;3.27;100477.81;4835053;29;20110;-70
2022/08/24 11:28:09;;;;;;;4.15;1.05;;;;;;;48.59;4.03;100465.06;4819444;29;20487;-70
2022/08/24 11:30:38;;;;;;;5.70;1.33;;;;;;;46.69;4.83;100476.97;4819918;29;20149;-69
2022/08/24 11:33:05;;;;;;;9.85;1.45;;;;;;;45.89;5.08;100459.53;4804490;29;20042;-70
2022/08/24 11:35:30;;;;;;;4.32;1.30;;;;;;;44.87;5.68;100460.22;4803906;29;20389;-69
2022/08/24 11:38:25;;;;;;;5.10;1.20;;;;;;;44.17;6.73;100452.88;4821537;29;20107;-69
2022/08/24 11:40:56;;;;;;;6.57;1.60;;;;;;;43.30;7.05;100454.91;4819734;29;20054;-68
2022/08/24 11:44:00;;;;;;;9.38;1.40;;;;;;;43.60;6.98;100458.13;4835212;29;20059;-69
2022/08/24 11:46:26;;;;;;;4.32;1.10;;;;;;;43.36;6.96;100459.06;4835103;29;20047;-69
2022/08/24 11:48:55;;;;;;;9.57;1.70;;;;;;;42.87;7.41;100451.97;4819703;29;20046;-69
2022/08/24 11:51:56;;;;;;;5.35;1.50;;;;;;;43.37;7.39;100448.66;4835165;29;20527;-68
2022/08/24 11:54:45;;;;;;;8.02;1.40;;;;;;;43.20;7.09;100450.63;4820051;29;20065;-68
2022/08/24 11:57:17;;;;;;;6.17;1.50;;;;;;;41.55;8.19;100433.94;4834615;29;20106;-68
2022/08/24 12:00:08;;;;;;;9.38;1.40;;;;;;;40.64;8.57;100422.03;4819611;29;20050;-68
2022/08/24 12:02:51;;;;;;;7.80;1.73;;;;;;;40.15;9.23;100456.19;4834367;29;20054;-68
2022/08/24 12:05:23;;;;;;;6.53;1.30;;;;;;;39.59;9.85;100439.81;4819305;29;20165;-68
2022/08/24 12:08:10;;;;;;;11.27;1.42;;;;;;;39.45;9.50;100444.75;4834200;29;20057;-68
2022/08/24 12:10:48;;;;;;;8.02;1.58;;;;;;;39.15;9.74;100442.97;4834465;29;20050;-68